createdAt,value
2018-11-03T00:00:16.567Z,19.9
2018-11-03T00:01:06.461Z,19.9
2018-11-03T00:01:56.168Z,19.9
2018-11-03T00:02:45.996Z,20
2018-11-03T00:03:36.252Z,20
2018-11-03T00:04:25.255Z,20
2018-11-03T00:05:17.335Z,19.9
2018-11-03T00:06:07.697Z,19.9
2018-11-03T00:25:05.429Z,19.9
2018-11-03T00:25:53.542Z,19.9
2018-11-03T00:26:44.592Z,19.9
2018-11-03T00:27:35.252Z,19.9
2018-11-03T00:28:26.757Z,19.9
2018-11-03T00:29:16.092Z,19.9
2018-11-03T00:30:04.145Z,20
2018-11-03T00:30:55.117Z,19.9
2018-11-03T00:31:46.962Z,19.9
2018-11-03T00:32:34.993Z,19.9
2018-11-03T00:33:25.502Z,19.9
2018-11-03T00:34:15.465Z,19.9
2018-11-03T00:35:08.107Z,19.9
2018-11-03T00:35:56.284Z,19.9
2018-11-03T00:36:44.664Z,19.9
2018-11-03T00:37:35.472Z,19.9
2018-11-03T00:38:26.470Z,19.9
2018-11-03T00:39:15.484Z,19.9
2018-11-03T00:40:05.899Z,19.9
2018-11-03T00:40:56.590Z,19.9
2018-11-03T00:41:46.787Z,19.9
2018-11-03T00:42:36.327Z,19.9
2018-11-03T00:43:25.664Z,19.9
2018-11-03T00:44:16.069Z,19.9
2018-11-03T00:45:07.791Z,19.9
2018-11-03T00:45:55.719Z,19.9
2018-11-03T00:46:47.126Z,19.9
2018-11-03T00:47:37.091Z,19.9
2018-11-03T00:48:28.658Z,19.9
2018-11-03T00:49:16.691Z,19.9
2018-11-03T00:50:06.439Z,19.9
2018-11-03T00:50:57.611Z,19.9
2018-11-03T00:51:48.801Z,19.9
2018-11-03T00:52:37.712Z,19.9
2018-11-03T00:53:27.854Z,19.9
2018-11-03T00:54:17.554Z,19.9
2018-11-03T00:55:07.617Z,19.9
2018-11-03T00:55:58.286Z,19.9
2018-11-03T00:56:48.003Z,19.9
2018-11-03T00:57:37.590Z,19.9
2018-11-03T00:58:27.805Z,19.9
2018-11-03T00:59:17.371Z,19.9
2018-11-03T01:00:06.401Z,19.9
2018-11-03T01:00:57.730Z,19.9
2018-11-03T01:01:47.273Z,19.9
2018-11-03T01:02:38.591Z,19.9
2018-11-03T01:03:28.333Z,19.9
2018-11-03T01:04:17.873Z,19.9
2018-11-03T01:05:09.105Z,19.9
2018-11-03T01:05:57.700Z,19.9
2018-11-03T01:06:48.673Z,19.9
2018-11-03T01:07:38.055Z,19.9
2018-11-03T01:08:28.813Z,19.9
2018-11-03T01:09:18.732Z,19.9
2018-11-03T01:10:08.747Z,19.9
2018-11-03T01:10:58.750Z,19.9
2018-11-03T01:11:48.574Z,19.9
2018-11-03T01:12:38.065Z,19.9
2018-11-03T01:13:26.820Z,19.9
2018-11-03T01:14:17.895Z,19.9
2018-11-03T01:15:08.525Z,19.9
2018-11-03T01:15:58.281Z,19.9
2018-11-03T01:16:49.132Z,19.9
2018-11-03T01:17:39.671Z,19.9
2018-11-03T01:18:29.156Z,19.9
2018-11-03T01:19:19.684Z,19.9
2018-11-03T01:20:09.487Z,19.9
2018-11-03T01:20:59.497Z,19.9
2018-11-03T01:21:48.517Z,19.9
2018-11-03T01:22:39.172Z,19.9
2018-11-03T01:23:29.651Z,19.9
2018-11-03T01:24:19.167Z,19.9
2018-11-03T01:25:08.957Z,19.9
2018-11-03T01:25:59.635Z,19.9
2018-11-03T01:26:50.034Z,19.9
2018-11-03T01:27:39.774Z,19.9
2018-11-03T01:28:29.765Z,19.9
2018-11-03T01:29:19.919Z,19.9
2018-11-03T01:30:10.031Z,19.9
2018-11-03T01:30:58.884Z,19.9
2018-11-03T01:31:50.435Z,19.9
2018-11-03T01:32:41.516Z,19.9
2018-11-03T01:33:30.356Z,19.9
2018-11-03T01:34:20.214Z,19.9
2018-11-03T01:35:10.228Z,19.9
2018-11-03T01:35:59.136Z,19.9
2018-11-03T01:36:50.344Z,19.9
2018-11-03T01:37:40.449Z,19.9
2018-11-03T01:38:30.239Z,19.9
2018-11-03T01:39:20.968Z,19.9
2018-11-03T01:40:10.738Z,19.9
2018-11-03T01:41:00.668Z,19.9
2018-11-03T01:41:50.708Z,19.9
2018-11-03T01:42:41.747Z,19.9
2018-11-03T01:43:31.118Z,19.9
2018-11-03T01:44:20.275Z,19.9
2018-11-03T01:45:09.223Z,19.9
2018-11-03T01:45:59.973Z,19.9
2018-11-03T01:46:50.510Z,19.9
2018-11-03T01:47:40.738Z,19.9
2018-11-03T01:48:30.776Z,19.9
2018-11-03T01:49:20.759Z,19.9
2018-11-03T01:50:11.975Z,19.9
2018-11-03T01:51:01.836Z,19.9
2018-11-03T01:51:50.635Z,19.9
2018-11-03T01:52:41.416Z,19.9
2018-11-03T01:53:30.253Z,19.9
2018-11-03T01:54:21.986Z,19.9
2018-11-03T01:55:12.150Z,19.9
2018-11-03T01:56:01.555Z,19.9
2018-11-03T01:56:51.576Z,19.9
2018-11-03T01:57:42.532Z,19.9
2018-11-03T01:58:31.515Z,19.9
2018-11-03T01:59:22.102Z,19.9
2018-11-03T02:00:11.550Z,19.9
2018-11-03T02:01:01.875Z,19.9
2018-11-03T02:01:51.362Z,19.9
2018-11-03T02:02:41.835Z,19.9
2018-11-03T02:03:31.421Z,19.9
2018-11-03T02:04:21.427Z,19.9
2018-11-03T02:05:12.099Z,19.9
2018-11-03T02:06:02.272Z,19.9
2018-11-03T02:06:52.027Z,19.9
2018-11-03T02:07:43.049Z,19.9
2018-11-03T02:08:33.736Z,19.9
2018-11-03T02:09:23.005Z,19.9
2018-11-03T02:10:12.439Z,19.9
2018-11-03T02:11:02.918Z,19.9
2018-11-03T02:11:51.479Z,19.9
2018-11-03T02:12:45.422Z,19.9
2018-11-03T02:13:33.687Z,19.9
2018-11-03T02:14:23.416Z,19.9
2018-11-03T02:15:13.373Z,19.9
2018-11-03T02:16:05.898Z,19.9
2018-11-03T02:16:53.962Z,19.9
2018-11-03T02:17:43.438Z,19.9
2018-11-03T02:18:33.461Z,19.9
2018-11-03T02:19:25.022Z,19.9
2018-11-03T02:20:13.509Z,19.9
2018-11-03T02:21:03.881Z,19.9
2018-11-03T02:21:54.245Z,19.9
2018-11-03T02:22:42.988Z,19.9
2018-11-03T02:23:33.396Z,19.9
2018-11-03T02:24:23.185Z,19.9
2018-11-03T02:25:13.923Z,19.9
2018-11-03T02:26:04.346Z,19.9
2018-11-03T02:26:54.186Z,19.9
2018-11-03T02:27:43.561Z,19.9
2018-11-03T02:28:33.276Z,19.9
2018-11-03T02:29:23.806Z,19.9
2018-11-03T02:30:14.393Z,19.9
2018-11-03T02:31:04.149Z,19.9
2018-11-03T02:31:54.863Z,19.9
2018-11-03T02:32:45.053Z,19.9
2018-11-03T02:33:34.681Z,19.9
2018-11-03T02:34:24.310Z,19.9
2018-11-03T02:35:14.955Z,19.9
2018-11-03T02:36:06.393Z,19.9
2018-11-03T02:36:54.595Z,19.9
2018-11-03T02:37:44.468Z,19.9
2018-11-03T02:38:33.875Z,19.9
2018-11-03T02:39:25.638Z,19.9
2018-11-03T02:40:14.165Z,19.9
2018-11-03T02:41:05.400Z,19.9
2018-11-03T02:41:54.778Z,19.9
2018-11-03T02:42:46.713Z,19.9
2018-11-03T02:43:34.164Z,19.9
2018-11-03T02:44:24.550Z,19.9
2018-11-03T02:45:15.207Z,19.9
2018-11-03T02:46:05.561Z,19.9
2018-11-03T02:46:54.295Z,19.9
2018-11-03T02:47:45.912Z,19.9
2018-11-03T02:48:35.495Z,19.9
2018-11-03T02:49:27.446Z,19.9
2018-11-03T02:50:15.457Z,19.9
2018-11-03T02:51:05.592Z,19.9
2018-11-03T02:51:56.037Z,19.9
2018-11-03T02:52:46.430Z,19.9
2018-11-03T02:53:35.600Z,19.9
2018-11-03T02:54:26.112Z,19.9
2018-11-03T02:55:15.459Z,19.9
2018-11-03T02:56:07.654Z,19.9
2018-11-03T02:56:55.669Z,19.9
2018-11-03T02:57:45.615Z,19.9
2018-11-03T02:58:36.496Z,19.9
2018-11-03T02:59:27.076Z,19.9
2018-11-03T03:00:16.241Z,19.9
2018-11-03T03:01:06.909Z,19.9
2018-11-03T03:01:57.276Z,19.9
2018-11-03T03:02:47.227Z,19.9
2018-11-03T03:03:37.001Z,19.9
2018-11-03T03:04:26.950Z,19.9
2018-11-03T03:05:16.813Z,19.9
2018-11-03T03:06:07.115Z,19.9
2018-11-03T03:06:57.992Z,19.9
2018-11-03T03:07:46.268Z,19.9
2018-11-03T03:08:37.211Z,19.9
2018-11-03T03:09:27.288Z,19.8
2018-11-03T03:10:16.887Z,19.9
2018-11-03T03:11:06.916Z,19.9
2018-11-03T03:11:58.039Z,19.9
2018-11-03T03:12:48.130Z,19.9
2018-11-03T03:13:37.270Z,19.8
2018-11-03T03:14:27.180Z,19.8
2018-11-03T03:15:18.370Z,19.9
2018-11-03T03:16:08.723Z,19.9
2018-11-03T03:16:57.620Z,19.9
2018-11-03T03:17:47.146Z,19.9
2018-11-03T03:18:37.242Z,19.9
2018-11-03T03:19:27.883Z,19.9
2018-11-03T03:20:17.775Z,19.9
2018-11-03T03:21:08.092Z,19.9
2018-11-03T03:21:58.208Z,19.9
2018-11-03T03:22:47.973Z,19.8
2018-11-03T03:23:37.945Z,19.8
2018-11-03T03:24:27.832Z,19.9
2018-11-03T03:25:18.577Z,19.8
2018-11-03T03:26:08.303Z,19.9
2018-11-03T03:26:59.329Z,19.8
2018-11-03T03:27:48.171Z,19.8
2018-11-03T03:28:39.070Z,19.8
2018-11-03T03:29:29.325Z,19.8
2018-11-03T03:30:20.127Z,19.8
2018-11-03T03:31:09.266Z,19.8
2018-11-03T03:31:57.419Z,19.8
2018-11-03T03:32:50.658Z,19.8
2018-11-03T03:33:38.909Z,19.8
2018-11-03T03:34:29.978Z,19.8
2018-11-03T03:35:20.609Z,19.8
2018-11-03T03:36:09.457Z,19.9
2018-11-03T03:36:58.806Z,19.8
2018-11-03T03:37:49.169Z,19.9
2018-11-03T03:38:39.342Z,19.8
2018-11-03T03:39:29.835Z,19.8
2018-11-03T03:40:20.193Z,19.8
2018-11-03T03:41:09.640Z,19.8
2018-11-03T03:41:59.859Z,19.9
2018-11-03T03:42:49.669Z,19.9
2018-11-03T03:43:39.534Z,19.8
2018-11-03T03:44:29.416Z,19.8
2018-11-03T03:45:19.668Z,19.8
2018-11-03T03:46:09.304Z,19.8
2018-11-03T03:47:00.037Z,19.8
2018-11-03T03:47:49.896Z,19.8
2018-11-03T03:48:39.471Z,19.8
2018-11-03T03:49:30.032Z,19.8
2018-11-03T03:50:20.325Z,19.8
2018-11-03T03:51:10.126Z,19.8
2018-11-03T03:52:00.290Z,19.8
2018-11-03T03:52:50.225Z,19.8
2018-11-03T03:53:40.458Z,19.8
2018-11-03T03:54:31.103Z,19.8
2018-11-03T03:55:20.515Z,19.8
2018-11-03T03:56:10.933Z,19.8
2018-11-03T03:57:00.058Z,19.8
2018-11-03T03:57:49.903Z,19.8
2018-11-03T03:58:40.264Z,19.8
2018-11-03T03:59:30.545Z,19.8
2018-11-03T04:00:19.643Z,19.8
2018-11-03T04:01:10.951Z,19.8
2018-11-03T04:02:00.765Z,19.8
2018-11-03T04:02:51.845Z,19.8
2018-11-03T04:03:41.234Z,19.8
2018-11-03T04:04:31.097Z,19.8
2018-11-03T04:05:21.882Z,19.8
2018-11-03T04:06:12.314Z,19.8
2018-11-03T04:07:01.905Z,19.8
2018-11-03T04:07:52.626Z,19.8
2018-11-03T04:08:42.447Z,19.8
2018-11-03T04:09:32.202Z,19.8
2018-11-03T04:10:21.427Z,19.8
2018-11-03T04:11:11.855Z,19.8
2018-11-03T04:12:00.700Z,19.8
2018-11-03T04:12:52.090Z,19.8
2018-11-03T04:13:41.748Z,19.8
2018-11-03T04:14:31.679Z,19.8
2018-11-03T04:15:22.420Z,19.8
2018-11-03T04:16:13.877Z,19.8
2018-11-03T04:17:02.741Z,19.8
2018-11-03T04:17:52.551Z,19.8
2018-11-03T04:18:41.444Z,19.8
2018-11-03T04:19:33.940Z,19.8
2018-11-03T04:20:22.262Z,19.8
2018-11-03T04:21:12.678Z,19.8
2018-11-03T04:22:01.742Z,19.8
2018-11-03T04:22:52.560Z,19.8
2018-11-03T04:23:41.824Z,19.8
2018-11-03T04:24:32.837Z,19.8
2018-11-03T04:25:37.887Z,19.8
2018-11-03T04:26:12.304Z,19.8
2018-11-03T04:27:03.172Z,19.8
2018-11-03T04:27:53.021Z,19.8
2018-11-03T04:28:42.735Z,19.8
2018-11-03T04:29:33.058Z,19.8
2018-11-03T04:30:23.109Z,19.8
2018-11-03T04:31:13.054Z,19.8
2018-11-03T04:32:03.046Z,19.8
2018-11-03T04:32:55.231Z,19.8
2018-11-03T04:33:42.266Z,19.8
2018-11-03T04:34:32.662Z,19.8
2018-11-03T04:35:22.766Z,19.8
2018-11-03T04:36:15.078Z,19.8
2018-11-03T04:54:14.140Z,19.8
2018-11-03T04:55:05.831Z,19.8
2018-11-03T04:55:53.194Z,19.8
2018-11-03T04:56:43.857Z,19.8
2018-11-03T04:57:33.800Z,19.8
2018-11-03T04:58:26.227Z,19.8
2018-11-03T04:59:14.392Z,19.8
2018-11-03T05:00:05.359Z,19.8
2018-11-03T05:00:54.292Z,19.8
2018-11-03T05:01:46.012Z,19.8
2018-11-03T05:02:34.688Z,19.8
2018-11-03T05:03:25.202Z,19.8
2018-11-03T05:04:14.220Z,19.8
2018-11-03T05:05:06.041Z,19.8
2018-11-03T05:05:54.281Z,19.8
2018-11-03T05:06:43.963Z,19.8
2018-11-03T05:07:35.314Z,19.8
2018-11-03T05:08:25.679Z,19.8
2018-11-03T05:09:14.189Z,19.8
2018-11-03T05:10:06.326Z,19.8
2018-11-03T05:10:54.524Z,19.8
2018-11-03T05:11:46.671Z,19.8
2018-11-03T05:12:36.022Z,19.8
2018-11-03T05:13:25.353Z,19.8
2018-11-03T05:14:15.594Z,19.8
2018-11-03T05:15:06.544Z,19.8
2018-11-03T05:15:55.676Z,19.8
2018-11-03T05:16:44.868Z,19.8
2018-11-03T05:17:35.504Z,19.8
2018-11-03T05:18:28.024Z,19.8
2018-11-03T05:19:15.926Z,19.8
2018-11-03T05:20:06.314Z,19.8
2018-11-03T05:20:55.596Z,19.8
2018-11-03T05:21:47.466Z,19.8
2018-11-03T05:22:36.436Z,19.8
2018-11-03T05:23:25.369Z,19.8
2018-11-03T05:24:15.533Z,19.8
2018-11-03T05:25:07.695Z,19.8
2018-11-03T05:25:55.755Z,19.8
2018-11-03T05:26:46.497Z,19.8
2018-11-03T05:27:37.101Z,19.8
2018-11-03T05:28:26.651Z,19.8
2018-11-03T05:29:15.843Z,19.8
2018-11-03T05:30:06.467Z,19.8
2018-11-03T05:30:56.550Z,19.8
2018-11-03T05:31:46.630Z,19.8
2018-11-03T05:32:37.265Z,19.8
2018-11-03T05:33:26.230Z,19.8
2018-11-03T05:34:17.230Z,19.8
2018-11-03T05:35:07.741Z,19.8
2018-11-03T05:35:56.837Z,19.8
2018-11-03T05:36:46.649Z,19.8
2018-11-03T05:37:35.638Z,19.8
2018-11-03T05:38:26.754Z,19.8
2018-11-03T05:39:16.845Z,19.8
2018-11-03T05:40:06.792Z,19.8
2018-11-03T05:40:57.260Z,19.8
2018-11-03T05:41:48.205Z,19.8
2018-11-03T05:42:37.419Z,19.8
2018-11-03T05:43:27.227Z,19.8
2018-11-03T05:44:16.668Z,19.8
2018-11-03T05:45:07.238Z,19.8
2018-11-03T05:45:58.077Z,19.8
2018-11-03T05:46:48.820Z,19.8
2018-11-03T05:47:37.552Z,19.8
2018-11-03T05:48:27.112Z,19.8
2018-11-03T05:49:17.352Z,19.8
2018-11-03T05:50:06.844Z,19.8
2018-11-03T05:50:59.262Z,19.8
2018-11-03T05:51:47.747Z,19.8
2018-11-03T05:52:38.244Z,19.8
2018-11-03T05:53:28.148Z,19.8
2018-11-03T05:54:17.489Z,19.8
2018-11-03T05:55:07.513Z,19.8
2018-11-03T05:55:57.446Z,19.8
2018-11-03T05:56:48.849Z,19.8
2018-11-03T05:57:38.463Z,19.8
2018-11-03T05:58:28.147Z,19.8
2018-11-03T05:59:18.266Z,19.8
2018-11-03T06:00:08.269Z,19.8
2018-11-03T06:00:58.710Z,19.8
2018-11-03T06:01:48.278Z,19.7
2018-11-03T06:02:38.373Z,19.8
2018-11-03T06:03:28.374Z,19.8
2018-11-03T06:04:19.550Z,19.8
2018-11-03T06:05:09.668Z,19.7
2018-11-03T06:05:59.897Z,19.8
2018-11-03T06:06:48.939Z,19.7
2018-11-03T06:07:39.061Z,19.7
2018-11-03T06:08:29.013Z,19.7
2018-11-03T06:09:19.376Z,19.7
2018-11-03T06:10:08.911Z,19.7
2018-11-03T06:10:59.138Z,19.7
2018-11-03T06:11:50.153Z,19.8
2018-11-03T06:12:39.542Z,19.7
2018-11-03T06:13:29.963Z,19.7
2018-11-03T06:14:19.355Z,19.7
2018-11-03T06:15:09.667Z,19.7
2018-11-03T06:16:01.301Z,19.8
2018-11-03T06:16:49.568Z,19.7
2018-11-03T06:17:39.577Z,19.7
2018-11-03T06:18:30.015Z,19.8
2018-11-03T06:19:20.076Z,19.7
2018-11-03T06:20:09.343Z,19.7
2018-11-03T06:21:00.405Z,19.7
2018-11-03T06:21:50.833Z,19.7
2018-11-03T06:22:43.764Z,19.7
2018-11-03T06:23:31.526Z,19.7
2018-11-03T06:24:20.073Z,19.7
2018-11-03T06:25:09.458Z,19.7
2018-11-03T06:26:00.827Z,19.6
2018-11-03T06:26:52.235Z,19.7
2018-11-03T06:27:40.755Z,19.6
2018-11-03T06:28:31.595Z,19.6
2018-11-03T06:29:21.342Z,19.6
2018-11-03T06:30:11.392Z,19.6
2018-11-03T06:31:01.357Z,19.6
2018-11-03T06:31:50.702Z,19.6
2018-11-03T06:32:42.184Z,19.6
2018-11-03T06:33:30.750Z,19.6
2018-11-03T06:34:22.382Z,19.6
2018-11-03T06:35:13.039Z,19.6
2018-11-03T06:36:02.129Z,19.6
2018-11-03T06:36:50.780Z,19.6
2018-11-03T06:37:41.840Z,19.6
2018-11-03T06:38:31.594Z,19.6
2018-11-03T06:39:22.141Z,19.5
2018-11-03T06:40:12.613Z,19.6
2018-11-03T06:41:01.236Z,19.6
2018-11-03T06:41:52.029Z,19.5
2018-11-03T06:42:42.633Z,19.5
2018-11-03T06:43:30.391Z,19.6
2018-11-03T06:44:20.419Z,19.5
2018-11-03T06:45:12.532Z,19.5
2018-11-03T06:46:02.756Z,19.5
2018-11-03T06:46:52.102Z,19.5
2018-11-03T06:47:44.431Z,19.5
2018-11-03T06:48:31.366Z,19.5
2018-11-03T06:49:23.982Z,19.5
2018-11-03T06:50:11.481Z,19.5
2018-11-03T06:51:02.791Z,19.5
2018-11-03T06:51:51.541Z,19.5
2018-11-03T06:52:44.215Z,19.5
2018-11-03T06:53:32.882Z,19.5
2018-11-03T06:54:22.935Z,19.5
2018-11-03T06:55:11.913Z,19.5
2018-11-03T06:56:05.383Z,19.5
2018-11-03T06:56:53.905Z,19.5
2018-11-03T06:57:42.206Z,19.5
2018-11-03T06:58:33.993Z,19.5
2018-11-03T06:59:24.758Z,19.5
2018-11-03T07:00:13.583Z,19.5
2018-11-03T07:01:03.373Z,19.6
2018-11-03T07:01:52.863Z,19.5
2018-11-03T07:02:44.344Z,19.5
2018-11-03T07:03:34.311Z,19.5
2018-11-03T07:04:23.468Z,19.5
2018-11-03T07:05:15.432Z,19.5
2018-11-03T07:06:05.664Z,19.5
2018-11-03T07:06:54.131Z,19.5
2018-11-03T07:07:44.078Z,19.5
2018-11-03T07:08:34.271Z,19.6
2018-11-03T07:09:25.350Z,19.6
2018-11-03T07:10:14.793Z,19.6
2018-11-03T07:11:04.928Z,19.6
2018-11-03T07:11:54.733Z,19.6
2018-11-03T07:12:49.724Z,19.6
2018-11-03T07:13:34.855Z,19.6
2018-11-03T07:14:24.864Z,19.6
2018-11-03T07:15:14.993Z,19.6
2018-11-03T07:16:06.579Z,19.6
2018-11-03T07:16:55.033Z,19.6
2018-11-03T07:17:45.761Z,19.6
2018-11-03T07:18:34.430Z,19.6
2018-11-03T07:19:27.078Z,19.6
2018-11-03T07:20:14.011Z,19.6
2018-11-03T07:21:05.451Z,19.6
2018-11-03T07:21:56.702Z,19.6
2018-11-03T07:22:46.973Z,19.6
2018-11-03T07:23:34.800Z,19.6
2018-11-03T07:24:25.639Z,19.6
2018-11-03T07:25:14.105Z,19.6
2018-11-03T07:26:06.527Z,19.6
2018-11-03T07:26:56.296Z,19.6
2018-11-03T07:27:45.015Z,19.6
2018-11-03T07:28:35.968Z,19.6
2018-11-03T07:29:25.935Z,19.6
2018-11-03T07:30:15.453Z,19.6
2018-11-03T07:31:05.251Z,19.6
2018-11-03T07:31:55.652Z,19.6
2018-11-03T07:32:46.534Z,19.6
2018-11-03T07:33:35.982Z,19.6
2018-11-03T07:34:25.660Z,19.6
2018-11-03T07:35:16.980Z,19.6
2018-11-03T07:36:07.975Z,19.6
2018-11-03T07:36:57.125Z,19.6
2018-11-03T07:37:46.881Z,19.6
2018-11-03T07:38:37.774Z,19.6
2018-11-03T07:39:25.936Z,19.6
2018-11-03T07:40:16.686Z,19.6
2018-11-03T07:41:08.556Z,19.6
2018-11-03T07:41:55.854Z,19.6
2018-11-03T07:42:47.951Z,19.6
2018-11-03T07:43:36.806Z,19.6
2018-11-03T07:44:26.362Z,19.6
2018-11-03T07:45:16.684Z,19.6
2018-11-03T07:46:06.800Z,19.6
2018-11-03T07:46:56.198Z,19.6
2018-11-03T07:47:46.456Z,19.6
2018-11-03T07:48:36.832Z,19.6
2018-11-03T07:49:27.421Z,19.6
2018-11-03T07:50:17.031Z,19.6
2018-11-03T07:51:06.679Z,19.6
2018-11-03T07:51:56.925Z,19.6
2018-11-03T07:52:47.083Z,19.6
2018-11-03T07:53:36.769Z,19.6
2018-11-03T07:54:27.283Z,19.6
2018-11-03T07:55:17.631Z,19.6
2018-11-03T07:56:05.696Z,19.6
2018-11-03T07:56:58.410Z,19.6
2018-11-03T07:57:47.595Z,19.6
2018-11-03T07:58:37.695Z,19.6
2018-11-03T07:59:26.536Z,19.6
2018-11-03T08:00:18.384Z,19.6
2018-11-03T08:01:08.007Z,19.6
2018-11-03T08:01:58.402Z,19.6
2018-11-03T08:02:47.384Z,19.6
2018-11-03T08:03:37.289Z,19.6
2018-11-03T08:04:27.006Z,19.6
2018-11-03T08:05:18.389Z,19.6
2018-11-03T08:06:07.785Z,19.6
2018-11-03T08:06:57.375Z,19.6
2018-11-03T08:07:49.114Z,19.6
2018-11-03T08:08:39.376Z,19.6
2018-11-03T08:09:29.110Z,19.6
2018-11-03T08:10:18.617Z,19.6
2018-11-03T08:11:07.926Z,19.6
2018-11-03T08:11:59.264Z,19.6
2018-11-03T08:12:48.269Z,19.6
2018-11-03T08:13:39.723Z,19.6
2018-11-03T08:14:28.722Z,19.6
2018-11-03T08:15:18.271Z,19.6
2018-11-03T08:16:08.177Z,19.6
2018-11-03T08:16:58.007Z,19.6
2018-11-03T08:17:49.048Z,19.6
2018-11-03T08:18:38.291Z,19.6
2018-11-03T08:19:29.524Z,19.6
2018-11-03T08:20:18.089Z,19.6
2018-11-03T08:21:09.510Z,19.6
2018-11-03T08:21:59.502Z,19.6
2018-11-03T08:22:49.693Z,19.6
2018-11-03T08:23:39.138Z,19.5
2018-11-03T08:24:29.421Z,19.5
2018-11-03T08:25:20.584Z,19.5
2018-11-03T08:26:08.979Z,19.5
2018-11-03T08:26:59.191Z,19.5
2018-11-03T08:27:49.208Z,19.5
2018-11-03T08:28:39.061Z,19.5
2018-11-03T08:29:29.271Z,19.4
2018-11-03T08:30:20.081Z,19.4
2018-11-03T08:31:09.427Z,19.4
2018-11-03T08:32:00.229Z,19.4
2018-11-03T08:32:50.123Z,19.4
2018-11-03T08:33:39.910Z,19.4
2018-11-03T08:34:30.446Z,19.4
2018-11-03T08:35:19.979Z,19.4
2018-11-03T08:36:09.815Z,19.4
2018-11-03T08:37:00.875Z,19.4
2018-11-03T08:37:50.486Z,19.4
2018-11-03T08:38:40.230Z,19.4
2018-11-03T08:39:32.011Z,19.4
2018-11-03T08:40:20.791Z,19.4
2018-11-03T08:41:11.315Z,19.4
2018-11-03T08:42:00.897Z,19.4
2018-11-03T08:42:52.215Z,19.4
2018-11-03T08:43:41.248Z,19.4
2018-11-03T08:44:30.723Z,19.4
2018-11-03T08:45:21.382Z,19.4
2018-11-03T08:46:10.778Z,19.4
2018-11-03T08:47:01.467Z,19.4
2018-11-03T08:47:51.495Z,19.4
2018-11-03T08:48:41.844Z,19.4
2018-11-03T08:49:32.878Z,19.4
2018-11-03T08:50:21.215Z,19.3
2018-11-03T08:51:11.084Z,19.4
2018-11-03T08:52:01.864Z,19.4
2018-11-03T09:08:47.005Z,19.3
2018-11-03T09:09:36.638Z,19.3
2018-11-03T09:10:25.677Z,19.3
2018-11-03T09:11:17.252Z,19.3
2018-11-03T09:12:07.460Z,19.3
2018-11-03T09:12:57.381Z,19.3
2018-11-03T09:13:48.186Z,19.3
2018-11-03T09:14:39.090Z,19.3
2018-11-03T09:15:28.080Z,19.3
2018-11-03T09:16:16.807Z,19.3
2018-11-03T09:17:08.199Z,19.3
2018-11-03T09:17:56.610Z,19.3
2018-11-03T09:18:47.536Z,19.3
2018-11-03T09:19:38.432Z,19.3
2018-11-03T09:20:27.271Z,19.3
2018-11-03T09:21:18.718Z,19.3
2018-11-03T09:22:08.172Z,19.3
2018-11-03T09:22:57.924Z,19.3
2018-11-03T09:23:48.684Z,19.3
2018-11-03T09:24:39.299Z,19.3
2018-11-03T09:25:27.879Z,19.3
2018-11-03T09:26:17.472Z,19.3
2018-11-03T09:27:08.649Z,19.3
2018-11-03T09:27:57.664Z,19.3
2018-11-03T09:28:47.894Z,19.3
2018-11-03T09:29:38.798Z,19.3
2018-11-03T09:30:28.926Z,19.3
2018-11-03T09:31:19.286Z,19.3
2018-11-03T09:32:10.776Z,19.3
2018-11-03T09:32:58.693Z,19.3
2018-11-03T09:33:49.353Z,19.3
2018-11-03T09:34:40.052Z,19.3
2018-11-03T09:35:29.326Z,19.3
2018-11-03T09:36:19.538Z,19.3
2018-11-03T09:37:09.676Z,19.3
2018-11-03T09:37:58.995Z,19.3
2018-11-03T09:38:49.917Z,19.3
2018-11-03T09:39:39.437Z,19.3
2018-11-03T09:40:28.058Z,19.3
2018-11-03T09:41:18.896Z,19.3
2018-11-03T09:42:08.826Z,19.3
2018-11-03T09:43:00.644Z,19.3
2018-11-03T09:43:49.026Z,19.4
2018-11-03T09:44:39.617Z,19.3
2018-11-03T09:45:29.730Z,19.4
2018-11-03T09:46:18.573Z,19.3
2018-11-03T09:47:09.337Z,19.4
2018-11-03T09:47:59.050Z,19.4
2018-11-03T09:48:48.811Z,19.4
2018-11-03T09:49:39.238Z,19.4
2018-11-03T09:50:28.828Z,19.4
2018-11-03T09:51:21.012Z,19.4
2018-11-03T09:52:09.629Z,19.4
2018-11-03T09:52:59.592Z,19.4
2018-11-03T09:53:51.090Z,19.4
2018-11-03T09:54:39.790Z,19.4
2018-11-03T09:55:30.400Z,19.4
2018-11-03T09:56:20.955Z,19.4
2018-11-03T09:57:10.768Z,19.4
2018-11-03T09:58:00.937Z,19.4
2018-11-03T09:58:49.941Z,19.4
2018-11-03T09:59:39.807Z,19.4
2018-11-03T10:00:30.997Z,19.4
2018-11-03T10:01:20.914Z,19.4
2018-11-03T10:02:09.697Z,19.4
2018-11-03T10:03:00.907Z,19.4
2018-11-03T10:03:50.625Z,19.4
2018-11-03T10:04:40.544Z,19.4
2018-11-03T10:05:32.037Z,19.4
2018-11-03T10:06:20.665Z,19.4
2018-11-03T10:07:12.307Z,19.4
2018-11-03T10:08:00.438Z,19.4
2018-11-03T10:08:50.638Z,19.4
2018-11-03T10:09:41.260Z,19.4
2018-11-03T10:10:34.171Z,19.4
2018-11-03T10:11:22.646Z,19.4
2018-11-03T10:12:11.398Z,19.4
2018-11-03T10:13:01.999Z,19.4
2018-11-03T10:13:53.754Z,19.4
2018-11-03T10:14:40.710Z,19.4
2018-11-03T10:15:30.859Z,19.4
2018-11-03T10:16:22.731Z,19.4
2018-11-03T10:17:12.944Z,19.4
2018-11-03T10:18:02.627Z,19.4
2018-11-03T10:18:51.916Z,19.4
2018-11-03T10:19:42.287Z,19.4
2018-11-03T10:20:33.116Z,19.4
2018-11-03T10:21:21.824Z,19.4
2018-11-03T10:22:12.928Z,19.4
2018-11-03T10:23:04.060Z,19.4
2018-11-03T10:23:52.931Z,19.4
2018-11-03T10:24:42.508Z,19.4
2018-11-03T10:25:33.151Z,19.4
2018-11-03T10:26:22.438Z,19.4
2018-11-03T10:27:14.221Z,19.4
2018-11-03T10:28:03.047Z,19.4
2018-11-03T10:28:52.838Z,19.4
2018-11-03T10:29:42.901Z,19.4
2018-11-03T10:30:33.355Z,19.4
2018-11-03T10:31:22.811Z,19.4
2018-11-03T10:32:13.608Z,19.4
2018-11-03T10:33:02.633Z,19.4
2018-11-03T10:33:55.893Z,19.4
2018-11-03T10:34:43.851Z,19.4
2018-11-03T10:35:34.073Z,19.4
2018-11-03T10:36:24.553Z,19.4
2018-11-03T10:37:13.300Z,19.4
2018-11-03T10:38:02.880Z,19.4
2018-11-03T10:38:52.178Z,19.4
2018-11-03T10:39:43.705Z,19.4
2018-11-03T10:40:33.568Z,19.4
2018-11-03T10:41:23.517Z,19.4
2018-11-03T10:42:13.392Z,19.4
2018-11-03T10:43:03.480Z,19.4
2018-11-03T10:43:55.589Z,19.4
2018-11-03T10:44:43.695Z,19.4
2018-11-03T10:45:33.566Z,19.4
2018-11-03T10:46:26.705Z,19.5
2018-11-03T10:47:14.814Z,19.4
2018-11-03T10:48:02.670Z,19.4
2018-11-03T10:48:55.483Z,19.4
2018-11-03T10:49:44.184Z,19.4
2018-11-03T10:50:34.339Z,19.4
2018-11-03T10:51:24.677Z,19.4
2018-11-03T10:52:14.584Z,19.5
2018-11-03T10:53:04.858Z,19.5
2018-11-03T10:53:55.672Z,19.5
2018-11-03T10:54:43.799Z,19.5
2018-11-03T10:55:34.565Z,19.5
2018-11-03T10:56:23.679Z,19.5
2018-11-03T10:57:14.536Z,19.5
2018-11-03T10:58:06.099Z,19.5
2018-11-03T10:58:54.526Z,19.5
2018-11-03T10:59:45.249Z,19.5
2018-11-03T11:00:35.182Z,19.5
2018-11-03T11:01:25.860Z,19.5
2018-11-03T11:02:14.921Z,19.5
2018-11-03T11:03:05.223Z,19.5
2018-11-03T11:03:54.938Z,19.5
2018-11-03T11:04:45.513Z,19.5
2018-11-03T11:05:35.141Z,19.5
2018-11-03T11:06:24.643Z,19.5
2018-11-03T11:07:15.380Z,19.5
2018-11-03T11:08:05.245Z,19.5
2018-11-03T11:08:55.439Z,19.5
2018-11-03T11:09:45.251Z,19.5
2018-11-03T11:10:35.493Z,19.5
2018-11-03T11:11:25.325Z,19.5
2018-11-03T11:12:15.857Z,19.5
2018-11-03T11:13:06.214Z,19.5
2018-11-03T11:13:55.809Z,19.5
2018-11-03T11:14:44.872Z,19.5
2018-11-03T11:15:36.386Z,19.5
2018-11-03T11:16:28.174Z,19.5
2018-11-03T11:17:16.150Z,19.5
2018-11-03T11:18:06.723Z,19.5
2018-11-03T11:18:56.062Z,19.5
2018-11-03T11:19:47.210Z,19.5
2018-11-03T11:20:36.695Z,19.5
2018-11-03T11:21:26.855Z,19.5
2018-11-03T11:22:15.870Z,19.5
2018-11-03T11:23:06.587Z,19.5
2018-11-03T11:23:59.320Z,19.5
2018-11-03T11:24:47.445Z,19.5
2018-11-03T11:25:37.877Z,19.5
2018-11-03T11:26:27.389Z,19.5
2018-11-03T11:27:16.372Z,19.5
2018-11-03T11:28:06.622Z,19.5
2018-11-03T11:28:57.895Z,19.5
2018-11-03T11:29:47.806Z,19.5
2018-11-03T11:30:37.776Z,19.5
2018-11-03T11:31:29.195Z,19.6
2018-11-03T11:32:17.734Z,19.5
2018-11-03T11:33:07.726Z,19.6
2018-11-03T11:33:57.881Z,19.5
2018-11-03T11:34:48.852Z,19.6
2018-11-03T11:35:37.825Z,19.5
2018-11-03T11:36:27.426Z,19.6
2018-11-03T11:37:18.117Z,19.6
2018-11-03T11:38:08.604Z,19.6
2018-11-03T11:38:57.549Z,19.5
2018-11-03T11:39:47.896Z,19.6
2018-11-03T11:40:37.855Z,19.6
2018-11-03T11:41:28.653Z,19.5
2018-11-03T11:42:18.861Z,19.6
2018-11-03T11:43:07.125Z,19.6
2018-11-03T11:43:58.559Z,19.5
2018-11-03T11:44:47.668Z,19.6
2018-11-03T11:45:39.037Z,19.6
2018-11-03T11:46:28.351Z,19.6
2018-11-03T11:47:17.969Z,19.5
2018-11-03T11:48:08.513Z,19.6
2018-11-03T11:48:58.911Z,19.6
2018-11-03T11:49:48.509Z,19.5
2018-11-03T11:50:38.585Z,19.6
2018-11-03T11:51:30.034Z,19.5
2018-11-03T11:52:18.540Z,19.6
2018-11-03T11:53:09.514Z,19.5
2018-11-03T11:53:59.675Z,19.6
2018-11-03T11:54:50.923Z,19.6
2018-11-03T11:55:38.752Z,19.6
2018-11-03T11:56:29.131Z,19.6
2018-11-03T11:57:19.238Z,19.5